createdAt,value
2023-05-13T00:02:08.508Z,2.78
2023-05-13T00:04:36.193Z,2.80
2023-05-13T00:07:03.710Z,2.45
2023-05-13T00:09:32.093Z,2.40
2023-05-13T00:12:00.397Z,2.42
2023-05-13T00:14:27.920Z,2.63
2023-05-13T00:16:55.702Z,2.20
2023-05-13T00:19:23.086Z,2.72
2023-05-13T00:21:51.100Z,2.35
2023-05-13T00:24:19.323Z,2.38
2023-05-13T00:26:46.872Z,2.40
2023-05-13T00:29:14.643Z,2.58
2023-05-13T00:31:42.303Z,2.25
2023-05-13T00:34:09.679Z,2.72
2023-05-13T00:36:37.004Z,2.50
2023-05-13T00:39:04.970Z,2.42
2023-05-13T00:41:32.569Z,2.53
2023-05-13T00:43:59.925Z,2.63
2023-05-13T00:46:33.319Z,2.40
2023-05-13T00:49:01.408Z,2.70
2023-05-13T00:51:28.704Z,2.17
2023-05-13T00:53:59.753Z,2.45
2023-05-13T00:56:27.485Z,2.70
2023-05-13T00:58:54.733Z,2.40
2023-05-13T01:02:21.896Z,2.40
2023-05-13T01:05:27.366Z,2.35
2023-05-13T01:08:28.726Z,2.60
2023-05-13T01:11:15.014Z,2.38
2023-05-13T01:13:47.243Z,2.40
2023-05-13T01:16:37.196Z,2.60
2023-05-13T01:19:26.841Z,2.65
2023-05-13T01:21:55.983Z,2.58
2023-05-13T01:24:24.335Z,2.45
2023-05-13T01:26:53.544Z,2.53
2023-05-13T01:29:21.894Z,2.70
2023-05-13T01:31:51.701Z,2.40
2023-05-13T01:34:24.004Z,3.00
2023-05-13T01:36:54.648Z,2.92
2023-05-13T01:39:25.749Z,2.75
2023-05-13T01:41:58.950Z,2.70
2023-05-13T01:44:26.502Z,2.53
2023-05-13T01:46:53.828Z,2.58
2023-05-13T01:49:21.931Z,2.83
2023-05-13T01:51:49.165Z,2.40
2023-05-13T01:54:16.555Z,2.45
2023-05-13T01:56:49.491Z,2.20
2023-05-13T01:59:16.753Z,2.45
2023-05-13T02:01:46.391Z,2.25
2023-05-13T02:04:13.815Z,2.80
2023-05-13T02:06:43.450Z,2.17
2023-05-13T02:09:10.911Z,2.00
2023-05-13T02:11:41.092Z,2.00
2023-05-13T02:14:08.675Z,2.35
2023-05-13T02:16:36.427Z,2.00
2023-05-13T02:19:07.586Z,2.38
2023-05-13T02:21:35.061Z,2.13
2023-05-13T02:24:02.742Z,1.73
2023-05-13T02:26:30.373Z,2.00
2023-05-13T02:29:03.120Z,1.85
2023-05-13T02:31:30.516Z,1.60
2023-05-13T02:33:57.969Z,1.90
2023-05-13T02:36:26.208Z,1.80
2023-05-13T02:38:54.017Z,1.60
2023-05-13T02:41:21.796Z,1.83
2023-05-13T02:43:50.041Z,2.00
2023-05-13T02:46:17.335Z,1.83
2023-05-13T02:48:46.178Z,1.95
2023-05-13T02:51:13.367Z,1.70
2023-05-13T02:53:41.281Z,1.70
2023-05-13T02:56:10.237Z,1.90
2023-05-13T02:58:37.671Z,1.88
2023-05-13T03:01:05.035Z,1.88
2023-05-13T03:03:32.311Z,1.70
2023-05-13T03:06:00.014Z,1.73
2023-05-13T03:08:27.344Z,1.80
2023-05-13T03:10:54.991Z,1.80
2023-05-13T03:13:22.581Z,1.98
2023-05-13T03:15:51.439Z,2.00
2023-05-13T03:18:19.105Z,2.28
2023-05-13T03:20:46.766Z,1.77
2023-05-13T03:23:16.569Z,2.00
2023-05-13T03:25:46.592Z,2.00
2023-05-13T03:28:14.221Z,1.65
2023-05-13T03:30:44.500Z,1.77
2023-05-13T03:33:18.647Z,2.13
2023-05-13T03:35:48.967Z,1.92
2023-05-13T03:38:18.835Z,1.90
2023-05-13T03:40:55.560Z,1.85
2023-05-13T03:43:23.267Z,1.98
2023-05-13T03:45:56.313Z,1.92
2023-05-13T03:48:25.355Z,1.80
2023-05-13T03:50:54.506Z,2.10
2023-05-13T03:53:22.715Z,1.90
2023-05-13T03:55:50.567Z,2.00
2023-05-13T03:58:19.032Z,2.70
2023-05-13T04:00:47.235Z,1.90
2023-05-13T04:03:17.371Z,2.40
2023-05-13T04:05:48.163Z,2.17
2023-05-13T04:08:16.399Z,1.90
2023-05-13T04:10:44.802Z,1.90
2023-05-13T04:13:12.433Z,1.92
2023-05-13T04:15:39.710Z,2.00
2023-05-13T04:18:07.693Z,2.30
2023-05-13T04:20:39.560Z,3.85
2023-05-13T04:23:07.845Z,2.20
2023-05-13T04:25:37.363Z,2.25
2023-05-13T04:28:05.884Z,2.10
2023-05-13T04:30:39.070Z,2.15
2023-05-13T04:33:07.033Z,2.38
2023-05-13T04:35:35.809Z,2.13
2023-05-13T04:38:06.481Z,2.13
2023-05-13T04:40:34.232Z,2.15
2023-05-13T04:43:09.330Z,1.90
2023-05-13T04:45:43.949Z,2.00
2023-05-13T04:48:13.833Z,2.42
2023-05-13T04:50:48.376Z,2.10
2023-05-13T04:53:19.719Z,2.05
2023-05-13T04:55:50.314Z,2.22
2023-05-13T04:58:17.608Z,2.20
2023-05-13T05:00:45.077Z,2.33
2023-05-13T05:03:13.527Z,2.10
2023-05-13T05:05:41.293Z,1.98
2023-05-13T05:08:09.871Z,2.20
2023-05-13T05:10:38.466Z,2.40
2023-05-13T05:13:11.092Z,2.10
2023-05-13T05:15:39.326Z,2.28
2023-05-13T05:18:08.129Z,2.47
2023-05-13T05:20:38.289Z,2.80
2023-05-13T05:23:15.329Z,2.30
2023-05-13T05:25:45.886Z,2.33
2023-05-13T05:28:13.512Z,2.38
2023-05-13T05:30:43.642Z,2.30
2023-05-13T05:33:31.435Z,2.42
2023-05-13T05:35:58.728Z,2.30
2023-05-13T05:38:26.416Z,2.45
2023-05-13T05:40:56.413Z,2.35
2023-05-13T05:43:23.806Z,2.20
2023-05-13T05:45:53.049Z,2.13
2023-05-13T05:48:21.359Z,2.25
2023-05-13T05:50:49.336Z,2.20
2023-05-13T05:53:25.522Z,2.03
2023-05-13T05:55:53.236Z,2.22
2023-05-13T05:58:21.334Z,2.10
2023-05-13T06:00:48.932Z,1.98
2023-05-13T06:03:16.814Z,2.30
2023-05-13T06:05:44.997Z,2.35
2023-05-13T06:08:12.796Z,2.47
2023-05-13T06:10:40.888Z,2.38
2023-05-13T06:13:08.667Z,3.00
2023-05-13T06:15:38.433Z,2.80
2023-05-13T06:18:06.417Z,2.83
2023-05-13T06:20:35.555Z,2.75
2023-05-13T06:23:03.221Z,2.85
2023-05-13T06:25:31.369Z,2.67
2023-05-13T06:28:00.834Z,2.40
2023-05-13T06:30:31.371Z,2.30
2023-05-13T06:33:02.007Z,2.63
2023-05-13T06:35:31.358Z,2.40
2023-05-13T06:38:04.731Z,2.10
2023-05-13T06:40:33.284Z,2.50
2023-05-13T06:43:00.587Z,2.40
2023-05-13T06:45:36.903Z,2.50
2023-05-13T06:48:04.901Z,2.53
2023-05-13T06:50:32.278Z,2.42
2023-05-13T06:53:02.247Z,2.22
2023-05-13T06:55:29.673Z,2.47
2023-05-13T06:57:56.920Z,2.42
2023-05-13T07:00:24.616Z,2.60
2023-05-13T07:02:52.147Z,2.17
2023-05-13T07:05:19.598Z,2.10
2023-05-13T07:07:46.978Z,2.00
2023-05-13T07:10:16.326Z,2.50
2023-05-13T07:12:43.989Z,2.33
2023-05-13T07:15:11.986Z,2.45
2023-05-13T07:17:40.579Z,2.40
2023-05-13T07:20:10.167Z,2.17
2023-05-13T07:22:37.709Z,2.28
2023-05-13T07:25:06.834Z,2.40
2023-05-13T07:27:36.495Z,2.55
2023-05-13T07:30:04.941Z,2.50
2023-05-13T07:32:37.014Z,2.60
2023-05-13T07:35:05.719Z,2.83
2023-05-13T07:37:32.960Z,2.70
2023-05-13T07:40:00.129Z,2.97
2023-05-13T07:42:29.855Z,2.88
2023-05-13T07:44:57.208Z,2.60
2023-05-13T07:47:24.561Z,2.60
2023-05-13T07:49:51.790Z,2.67
2023-05-13T07:52:19.182Z,2.63
2023-05-13T07:54:46.492Z,2.83
2023-05-13T07:57:13.707Z,2.40
2023-05-13T07:59:43.324Z,2.45
2023-05-13T08:02:12.661Z,2.50
2023-05-13T08:04:40.305Z,2.53
2023-05-13T08:07:08.429Z,2.30
2023-05-13T08:09:35.647Z,2.55
2023-05-13T08:12:02.981Z,2.33
2023-05-13T08:14:30.395Z,2.70
2023-05-13T08:16:58.724Z,3.05
2023-05-13T08:19:26.404Z,2.88
2023-05-13T08:21:54.466Z,2.72
2023-05-13T08:24:22.377Z,3.00
2023-05-13T08:26:51.049Z,2.85
2023-05-13T08:29:19.071Z,3.03
2023-05-13T08:31:46.588Z,2.72
2023-05-13T08:34:13.920Z,2.78
2023-05-13T08:36:41.228Z,2.63
2023-05-13T08:39:09.821Z,2.80
2023-05-13T08:41:38.328Z,2.78
2023-05-13T08:44:07.529Z,2.35
2023-05-13T08:46:38.548Z,2.88
2023-05-13T08:49:07.851Z,2.90
2023-05-13T08:51:35.752Z,2.60
2023-05-13T08:54:04.942Z,2.50
2023-05-13T08:56:32.371Z,2.80
2023-05-13T08:58:59.573Z,2.60
2023-05-13T09:01:27.709Z,2.70
2023-05-13T09:04:02.917Z,2.55
2023-05-13T09:06:30.780Z,3.05
2023-05-13T09:08:58.475Z,2.72
2023-05-13T09:11:26.858Z,2.83
2023-05-13T09:14:03.693Z,3.00
2023-05-13T09:16:32.763Z,2.75
2023-05-13T09:19:05.358Z,2.50
2023-05-13T09:21:43.764Z,2.70
2023-05-13T09:24:21.409Z,2.67
2023-05-13T09:26:52.100Z,2.20
2023-05-13T09:29:24.561Z,2.67
2023-05-13T09:31:57.889Z,2.15
2023-05-13T09:34:34.301Z,2.13
2023-05-13T09:37:03.963Z,2.60
2023-05-13T09:39:41.802Z,2.15
2023-05-13T09:42:19.738Z,2.25
2023-05-13T09:44:48.928Z,2.33
2023-05-13T09:47:17.892Z,2.47
2023-05-13T09:49:55.072Z,2.30
2023-05-13T09:52:22.684Z,2.40
2023-05-13T09:54:49.992Z,1.92
2023-05-13T09:57:21.311Z,2.30
2023-05-13T09:59:48.667Z,2.08
2023-05-13T10:02:18.409Z,2.03
2023-05-13T10:04:47.086Z,1.90
2023-05-13T10:07:15.564Z,1.98
2023-05-13T10:09:46.155Z,1.60
2023-05-13T10:12:15.425Z,1.65
2023-05-13T10:14:44.315Z,1.60
2023-05-13T10:17:15.388Z,1.73
2023-05-13T10:19:43.169Z,1.55
2023-05-13T10:22:13.210Z,1.30
2023-05-13T10:24:44.757Z,1.52
2023-05-13T10:27:13.689Z,1.65
2023-05-13T10:29:44.697Z,1.50
2023-05-13T10:32:13.926Z,1.40
2023-05-13T10:34:44.976Z,1.77
2023-05-13T10:38:17.330Z,1.50
2023-05-13T10:41:08.100Z,1.70
2023-05-13T10:43:39.148Z,1.50
2023-05-13T10:46:12.742Z,1.40
2023-05-13T10:48:56.463Z,1.70
2023-05-13T10:51:26.012Z,1.65
2023-05-13T10:53:59.086Z,1.60
2023-05-13T10:56:29.092Z,1.38
2023-05-13T10:59:05.736Z,1.50
2023-05-13T11:01:43.287Z,1.67
2023-05-13T11:04:22.775Z,1.55
2023-05-13T11:06:51.866Z,1.60
2023-05-13T11:09:22.231Z,1.33
2023-05-13T11:11:55.965Z,1.50
2023-05-13T11:14:27.320Z,1.70
2023-05-13T11:17:10.119Z,1.50
2023-05-13T11:19:47.970Z,1.55
2023-05-13T11:22:20.543Z,1.58
2023-05-13T11:25:09.304Z,1.65
2023-05-13T11:28:01.647Z,1.40
2023-05-13T11:30:29.186Z,1.50
2023-05-13T11:32:59.372Z,1.20
2023-05-13T11:35:32.982Z,1.20
2023-05-13T11:38:06.727Z,1.30
2023-05-13T11:40:37.223Z,1.30
2023-05-13T11:43:06.400Z,1.23
2023-05-13T11:45:39.095Z,1.42
2023-05-13T11:48:24.400Z,1.38
2023-05-13T11:50:53.409Z,1.40
2023-05-13T11:53:23.706Z,1.48
2023-05-13T11:55:51.692Z,1.42
2023-05-13T11:58:21.817Z,1.50
2023-05-13T12:00:49.603Z,1.35
2023-05-13T12:03:17.630Z,1.38
2023-05-13T12:05:45.651Z,1.50
2023-05-13T12:08:13.361Z,1.38
2023-05-13T12:10:45.714Z,1.65
2023-05-13T12:13:13.891Z,1.30
2023-05-13T12:15:42.592Z,1.70
2023-05-13T12:18:10.004Z,1.45
2023-05-13T12:20:38.777Z,1.58
2023-05-13T12:23:07.134Z,1.33
2023-05-13T12:25:51.507Z,1.58
2023-05-13T12:28:27.305Z,1.65
2023-05-13T12:31:05.867Z,1.90
2023-05-13T12:33:46.912Z,1.88
2023-05-13T12:36:26.051Z,1.92
2023-05-13T12:39:11.703Z,2.13
2023-05-13T12:41:42.473Z,1.90
2023-05-13T12:44:14.509Z,1.67
2023-05-13T12:46:54.319Z,2.13
2023-05-13T12:49:22.445Z,1.83
2023-05-13T12:51:51.711Z,1.70
2023-05-13T12:54:19.396Z,1.90
2023-05-13T12:56:46.923Z,1.60
2023-05-13T12:59:14.464Z,1.80
2023-05-13T13:01:42.948Z,1.60
2023-05-13T13:04:10.817Z,1.60
2023-05-13T13:06:38.308Z,1.85
2023-05-13T13:09:06.042Z,1.77
2023-05-13T13:11:33.875Z,1.92
2023-05-13T13:14:01.443Z,1.73
2023-05-13T13:16:29.316Z,2.00
2023-05-13T13:19:01.529Z,1.90
2023-05-13T13:21:29.350Z,1.80
2023-05-13T13:23:57.077Z,1.77
2023-05-13T13:26:25.446Z,1.90
2023-05-13T13:28:53.446Z,1.80
2023-05-13T13:31:21.358Z,1.90
2023-05-13T13:33:49.127Z,3.80
2023-05-13T13:36:17.092Z,3.67
2023-05-13T13:38:44.565Z,3.00
2023-05-13T13:41:11.974Z,4.70
2023-05-13T13:43:39.179Z,8.15
2023-05-13T13:46:06.457Z,3.60
2023-05-13T13:48:33.739Z,2.13
2023-05-13T13:51:01.176Z,1.98
2023-05-13T13:53:28.487Z,2.28
2023-05-13T13:55:55.716Z,3.83
2023-05-13T13:58:23.006Z,2.70
2023-05-13T14:00:50.320Z,3.42
2023-05-13T14:03:17.991Z,4.95
2023-05-13T14:05:45.984Z,2.90
2023-05-13T14:08:13.484Z,3.13
2023-05-13T14:10:41.221Z,3.33
2023-05-13T14:13:08.584Z,4.30
2023-05-13T14:15:39.223Z,3.40
2023-05-13T14:18:07.884Z,2.88
2023-05-13T14:20:36.746Z,3.08
2023-05-13T14:23:05.513Z,2.63
2023-05-13T14:25:34.088Z,2.35
2023-05-13T14:28:02.301Z,2.80
2023-05-13T14:30:30.872Z,3.10
2023-05-13T14:33:00.598Z,3.08
2023-05-13T14:35:28.678Z,2.88
2023-05-13T14:37:56.131Z,5.60
2023-05-13T14:40:24.121Z,5.00
2023-05-13T14:42:51.741Z,3.25
2023-05-13T14:45:19.195Z,3.28
2023-05-13T14:47:46.454Z,3.47
2023-05-13T14:50:15.178Z,3.05
2023-05-13T14:52:42.493Z,2.80
2023-05-13T14:55:10.845Z,3.78
2023-05-13T14:57:39.176Z,3.58
2023-05-13T15:00:07.765Z,3.17
2023-05-13T15:02:35.735Z,3.30
2023-05-13T15:05:03.662Z,2.97
2023-05-13T15:07:31.738Z,2.83
2023-05-13T15:10:00.048Z,3.00
2023-05-13T15:12:30.837Z,3.15
2023-05-13T15:14:59.101Z,2.67
2023-05-13T15:17:27.405Z,3.08
2023-05-13T15:19:54.796Z,2.75
2023-05-13T15:22:22.687Z,2.80
2023-05-13T15:24:50.804Z,3.20
2023-05-13T15:27:19.571Z,2.78
2023-05-13T15:29:49.475Z,2.70
2023-05-13T15:32:16.932Z,2.80
2023-05-13T15:34:44.308Z,3.50
2023-05-13T15:37:11.772Z,2.75
2023-05-13T15:39:39.101Z,2.85
2023-05-13T15:42:09.599Z,3.10
2023-05-13T15:44:37.263Z,2.55
2023-05-13T15:47:06.264Z,2.55
2023-05-13T15:49:33.630Z,2.90
2023-05-13T15:52:01.615Z,2.83
2023-05-13T15:54:29.959Z,3.20
2023-05-13T15:57:00.548Z,2.70
2023-05-13T15:59:27.978Z,2.72
2023-05-13T16:01:55.349Z,3.47
2023-05-13T16:04:24.276Z,3.30
2023-05-13T16:06:52.272Z,3.20
2023-05-13T16:09:19.703Z,3.17
2023-05-13T16:11:47.868Z,3.05
2023-05-13T16:14:19.396Z,2.95
2023-05-13T16:16:46.984Z,3.13
2023-05-13T16:19:17.703Z,2.90
2023-05-13T16:21:45.953Z,3.05
2023-05-13T16:24:13.765Z,3.50
2023-05-13T16:26:41.739Z,3.10
2023-05-13T16:29:09.585Z,2.90
2023-05-13T16:31:37.371Z,2.85
2023-05-13T16:34:04.687Z,3.10
2023-05-13T16:36:31.987Z,3.35
2023-05-13T16:38:59.975Z,3.47
2023-05-13T16:41:27.441Z,3.03
2023-05-13T16:43:57.723Z,3.28
2023-05-13T16:46:24.987Z,3.13
2023-05-13T16:48:52.270Z,3.70
2023-05-13T16:51:22.457Z,3.33
2023-05-13T16:53:49.611Z,4.03
2023-05-13T16:56:16.852Z,3.97
2023-05-13T16:58:44.050Z,4.88
2023-05-13T17:01:11.808Z,6.63
2023-05-13T17:03:39.522Z,4.22
2023-05-13T17:06:07.682Z,5.60
2023-05-13T17:08:34.933Z,6.40
2023-05-13T17:11:02.172Z,4.82
2023-05-13T17:13:32.286Z,3.67
2023-05-13T17:15:59.551Z,4.07
2023-05-13T17:18:29.288Z,4.30
2023-05-13T17:20:56.703Z,3.42
2023-05-13T17:23:24.417Z,3.78
2023-05-13T17:25:52.508Z,3.50
2023-05-13T17:28:26.733Z,3.60
2023-05-13T17:30:54.105Z,3.20
2023-05-13T17:33:27.832Z,3.08
2023-05-13T17:35:55.040Z,3.80
2023-05-13T17:38:22.680Z,3.35
2023-05-13T17:40:51.622Z,3.25
2023-05-13T17:43:19.116Z,3.42
2023-05-13T17:45:46.393Z,3.40
2023-05-13T17:48:13.949Z,2.92
2023-05-13T17:50:46.491Z,2.78
2023-05-13T17:53:13.630Z,2.90
2023-05-13T17:55:41.352Z,3.03
2023-05-13T17:58:08.685Z,2.80
2023-05-13T18:00:36.009Z,3.17
2023-05-13T18:03:03.286Z,3.45
2023-05-13T18:05:33.223Z,3.30
2023-05-13T18:08:03.538Z,4.10
2023-05-13T18:10:30.913Z,3.53
2023-05-13T18:12:58.255Z,3.50
2023-05-13T18:15:25.617Z,3.38
2023-05-13T18:17:52.909Z,3.28
2023-05-13T18:20:20.515Z,3.28
2023-05-13T18:22:47.970Z,3.20
2023-05-13T18:25:15.216Z,3.50
2023-05-13T18:27:45.500Z,3.42
2023-05-13T18:30:13.927Z,4.03
2023-05-13T18:32:44.676Z,4.90
2023-05-13T18:35:12.008Z,3.30
2023-05-13T18:37:39.274Z,3.15
2023-05-13T18:40:08.107Z,3.83
2023-05-13T18:42:40.044Z,3.72
2023-05-13T18:45:10.129Z,2.85
2023-05-13T18:47:40.363Z,3.17
2023-05-13T18:50:11.056Z,3.38
2023-05-13T18:52:41.415Z,3.80
2023-05-13T18:55:09.061Z,3.47
2023-05-13T18:57:36.327Z,3.92
2023-05-13T19:00:04.430Z,4.60
2023-05-13T19:02:32.757Z,5.20
2023-05-13T19:05:03.168Z,4.13
2023-05-13T19:07:30.347Z,4.93
2023-05-13T19:10:00.628Z,4.10
2023-05-13T19:12:30.669Z,4.10
2023-05-13T19:14:57.824Z,4.20
2023-05-13T19:17:25.141Z,3.65
2023-05-13T19:19:52.351Z,3.72
2023-05-13T19:22:21.825Z,4.78
2023-05-13T19:24:49.091Z,5.10
2023-05-13T19:27:16.285Z,4.60
2023-05-13T19:29:43.417Z,5.43
2023-05-13T19:32:10.988Z,4.60
2023-05-13T19:34:38.163Z,4.80
2023-05-13T19:37:06.372Z,5.78
2023-05-13T19:39:33.668Z,5.22
2023-05-13T19:42:04.193Z,4.85
2023-05-13T19:44:31.900Z,5.25
2023-05-13T19:46:59.722Z,5.00
2023-05-13T19:49:27.060Z,4.47
2023-05-13T19:51:54.296Z,5.28
2023-05-13T19:54:21.420Z,5.30
2023-05-13T19:56:48.659Z,7.63
2023-05-13T19:59:16.170Z,4.85
2023-05-13T20:01:43.686Z,4.55
2023-05-13T20:04:11.390Z,4.68
2023-05-13T20:06:39.592Z,6.20
2023-05-13T20:09:10.431Z,5.47
2023-05-13T20:11:37.809Z,5.95
2023-05-13T20:14:05.238Z,6.03
2023-05-13T20:16:33.640Z,5.88
2023-05-13T20:19:01.048Z,6.00
2023-05-13T20:21:33.587Z,5.90
2023-05-13T20:24:00.787Z,5.60
2023-05-13T20:26:27.981Z,5.88
2023-05-13T20:28:55.311Z,6.00
2023-05-13T20:31:28.553Z,5.70
2023-05-13T20:33:55.863Z,6.63
2023-05-13T20:36:23.102Z,5.53
2023-05-13T20:38:50.345Z,5.90
2023-05-13T20:41:17.520Z,5.70
2023-05-13T20:43:47.242Z,5.50
2023-05-13T20:46:16.968Z,5.60
2023-05-13T20:48:44.432Z,6.15
2023-05-13T20:51:11.825Z,6.72
2023-05-13T20:53:39.179Z,6.55
2023-05-13T20:56:09.788Z,6.05
2023-05-13T20:58:37.251Z,6.75
2023-05-13T21:01:05.453Z,5.93
2023-05-13T21:03:33.380Z,5.90
2023-05-13T21:06:01.204Z,6.35
2023-05-13T21:08:28.550Z,6.35
2023-05-13T21:10:59.332Z,6.65
2023-05-13T21:13:27.207Z,5.88
2023-05-13T21:15:55.620Z,6.55
2023-05-13T21:18:23.939Z,6.15
2023-05-13T21:20:51.612Z,6.00
2023-05-13T21:23:20.667Z,5.97
2023-05-13T21:25:48.322Z,6.18
2023-05-13T21:28:18.458Z,6.30
2023-05-13T21:30:46.237Z,5.93
2023-05-13T21:33:13.709Z,6.70
2023-05-13T21:35:41.065Z,6.60
2023-05-13T21:38:12.154Z,6.05
2023-05-13T21:40:46.075Z,5.88
2023-05-13T21:43:13.284Z,6.40
2023-05-13T21:45:40.794Z,6.70
2023-05-13T21:48:08.483Z,6.82
2023-05-13T21:50:35.972Z,6.90
2023-05-13T21:53:04.345Z,6.63
2023-05-13T21:55:34.958Z,6.93
2023-05-13T21:58:03.178Z,6.70
2023-05-13T22:00:31.737Z,7.07
2023-05-13T22:03:01.479Z,7.22
2023-05-13T22:05:28.900Z,6.20
2023-05-13T22:07:56.655Z,6.75
2023-05-13T22:10:24.695Z,7.47
2023-05-13T22:12:52.568Z,7.75
2023-05-13T22:15:21.417Z,7.50
2023-05-13T22:17:50.650Z,7.68
2023-05-13T22:20:18.138Z,7.50
2023-05-13T22:22:46.106Z,7.85
2023-05-13T22:25:14.141Z,8.18
2023-05-13T22:27:41.755Z,7.00
2023-05-13T22:30:09.834Z,6.63
2023-05-13T22:32:38.408Z,6.80
2023-05-13T22:35:07.202Z,7.22
2023-05-13T22:37:34.550Z,7.43
2023-05-13T22:40:02.179Z,7.78
2023-05-13T22:42:29.662Z,7.40
2023-05-13T22:44:56.974Z,7.85
2023-05-13T22:47:24.308Z,7.50
2023-05-13T22:49:51.557Z,7.25
2023-05-13T22:52:18.862Z,7.03
2023-05-13T22:54:46.067Z,7.93
2023-05-13T22:57:13.266Z,7.68
2023-05-13T22:59:40.907Z,7.32
2023-05-13T23:02:12.976Z,8.20
2023-05-13T23:04:40.336Z,8.45
2023-05-13T23:07:08.467Z,7.85
2023-05-13T23:09:36.189Z,8.07
2023-05-13T23:12:03.747Z,8.13
2023-05-13T23:14:31.036Z,7.80
2023-05-13T23:16:58.274Z,8.60
2023-05-13T23:19:26.203Z,7.60
2023-05-13T23:21:54.183Z,7.78
2023-05-13T23:24:22.052Z,8.43
2023-05-13T23:26:49.884Z,7.85
2023-05-13T23:29:17.814Z,8.00
2023-05-13T23:31:45.523Z,8.23
2023-05-13T23:34:12.901Z,8.25
2023-05-13T23:36:40.528Z,7.93
2023-05-13T23:39:08.070Z,8.85
2023-05-13T23:41:36.036Z,8.55
2023-05-13T23:44:03.728Z,8.57
2023-05-13T23:46:32.337Z,8.15
2023-05-13T23:48:59.821Z,7.70
2023-05-13T23:51:27.200Z,8.32
2023-05-13T23:53:55.477Z,8.20
2023-05-13T23:56:22.828Z,7.93
2023-05-13T23:58:50.076Z,6.95
